aviador You're here:

KMWA Decoded Metar

MARION REGIONAL in IL, USA
Report Time2017-08-18 10:35:00
UTC Time2017-08-18 10:49:33
Flight Rules vfr VFR
Wind210° at 03 kt
W.Decomp.*RWY 20: 3.0 kt HW 0.5 kt RCW
RWY 29: 0.5 kt HW 3 kt LCW
W.Rank210° ranks 4
Current wind is below 210° avg. (7.9)
Visibility9999 m
Phenomena:N/A
Clouds:N/A
Expected CloudBase > 400 ft AGL from Temp-Dew spread
CeilingNone
Temp20°C (ISA +6)
Dew Point19°C (94% RH)
QNH1014 hPa
Density Alt1,424 ft
Elevation472 ft
Report Wrong Elevation
Raw Report
METAR KMWA 181035Z AUTO 21003KT 10SM CLR 20/19 A2994 RMK AO2=

Extra information for KMWA:More info

Metar Taf Metar & Taf Last 4 Metars F.Rules Stats Wind Profile Meteogram Temp Stats Airport Information Weather charts Add Link Nearby VenuesMetar ALERT Operation Metar Decoded Social comments

AIRNAV info for KMWA